• Join FlightAware (Why Join?)
  • Login
  • US Flag 
11:29AM EST


 

Airport Tracker/Info


-or-


 

Live Flight TrackerFlight Track Log ✈ N1339G ✈ 16-Jun-2013 ✈ KPSF - KABE

Flight Track Log - Related Links

Times and Time Zones

All times are in EDT time to prevent confusion due to time zone crossing. See the N1339G flight status page for this flight to view local times or setup timezone preferences in your user account.

Time Position Orientation Groundspeed Altitude Reporting Facility
EDT Latitude Longitude Course Direction KTS MPH feet Rate Location/Type
10:35AM 42.3967 -73.3650 216° Southwest 108 124 3,000  Level Boston Center
10:36AM 42.3714 -73.3900 216° Southwest 113 130 3,800 780 Climbing Boston Center
10:37AM 42.3481 -73.4261 229° Southwest 118 136 4,600 780 Climbing Boston Center
10:38AM 42.3228 -73.4567 222° Southwest 125 144 5,400 660 Climbing Boston Center
10:40AM 42.2869 -73.5036 224° Southwest 138 159 6,300 480 Climbing Boston Center
10:41AM 42.2575 -73.5397 222° Southwest 144 166 6,600  Climbing Boston Center
10:42AM 42.2239 -73.5783 220° Southwest 149 171 6,400 -60 Descending Boston Center
10:43AM 42.1922 -73.6197 224° Southwest 154 177 6,500  Climbing Boston Center
10:44AM 42.1603 -73.6611 224° Southwest 159 183 6,500 -60 Level Boston Center
10:45AM 42.1308 -73.7025 226° Southwest 159 183 6,400  Descending Boston Center
10:46AM 42.0992 -73.7411 222° Southwest 154 177 6,600 60 Climbing Boston Center
10:47AM 42.0694 -73.7742 220° Southwest 154 177 6,600  Level Boston Center
10:48AM 42.0314 -73.8236 224° Southwest 159 183 6,600 -600 Level Boston Center
10:49AM 41.9997 -73.8647 224° Southwest 159 183 5,500 -60 Descending Boston Center
10:50AM 41.9678 -73.9061 224° Southwest 159 183 6,500 480 Climbing Boston Center
10:51AM 41.9342 -73.9414 218° Southwest 159 183 6,500  Level Boston Center
10:52AM 41.9022 -73.9825 224° Southwest 159 183 6,500  Level Boston Center
10:53AM 41.8683 -74.0181 218° Southwest 159 183 6,500  Level Boston Center
10:54AM 41.8325 -74.0561 218° Southwest 159 183 6,500  Level Boston Center
10:55AM 41.8028 -74.0944 224° Southwest 159 183 6,500  Level Boston Center
10:56AM 41.7689 -74.1297 218° Southwest 159 183 6,500 -60 Level Boston Center
10:57AM 41.7328 -74.1650 216° Southwest 159 183 6,400  Descending Boston Center
10:58AM 41.7011 -74.2000 220° Southwest 159 183 6,500  Climbing Boston Center
10:59AM 41.6692 -74.2353 220° Southwest 159 183 6,400 -60 Descending Boston Center
11:00AM 41.6375 -74.2678 217° Southwest 159 183 6,400  Level Boston Center
11:01AM 41.6036 -74.3031 218° Southwest 159 183 6,500  Climbing Boston Center
11:02AM 41.5739 -74.3353 219° Southwest 159 183 6,500 -60 Level Boston Center
11:03AM 41.5397 -74.3786 224° Southwest 159 183 6,400  Descending Boston Center
11:04AM 41.5122 -74.4083 219° Southwest 154 177 6,500  Climbing Boston Center
11:05AM 41.4781 -74.4489 222° Southwest 160 184 6,400  Descending Boston Center
11:06AM 41.4483 -74.4811 219° Southwest 160 184 6,500  Climbing Boston Center
11:07AM 41.4142 -74.5244 224° Southwest 155 178 6,500  Level Boston Center
11:08AM 41.3864 -74.5567 221° Southwest 155 178 6,500  Level Boston Center
11:09AM 41.3544 -74.5972 224° Southwest 155 178 6,500 -60 Level Boston Center
11:10AM 41.3247 -74.6294 219° Southwest 155 178 6,400 -60 Descending Boston Center
11:11AM 41.2906 -74.6669 220° Southwest 155 178 6,400  Level Boston Center
11:12AM 41.2650 -74.6992 223° Southwest 155 178 6,500  Climbing Boston Center
11:13AM 41.2328 -74.7422 225° Southwest 150 173 6,500 -60 Level Boston Center
11:14AM 41.1986 -74.7822 221° Southwest 150 173 6,400 -120 Descending Boston Center
11:16AM 41.1036 -74.8827 223° Southwest  Level FlightAware Approximate
11:23AM 40.7351 -75.3252 220° Southwest  Level FlightAware Approximate
11:24AM 40.6807 -75.3872 229° Southwest  Level FlightAware Approximate
11:25AM 40.6500 -75.4333 229° Southwest  Level FlightAware Approximate
11:26AM 40.6524 -75.4404 229° Southwest  Level Estimated
11:27AM 40.6500 -75.4333 229° Southwest  Level FlightAware Approximate
11:28AM 40.6524 -75.4404 229° Southwest  Level Estimated
11:29AM 40.6500 -75.4333 229° Southwest  Level FlightAware Approximate